Time;durP1;ratioP1;P1;durP2;ratioP2;P2;SDS_P1;SDS_P2;PMS_P1;PMS_P2;Temp;Humidity;BMP_temperature;BMP_pressure;BME280_temperature;BME280_humidity;BME280_pressure;Samples;Min_cycle;Max_cycle;Signal;HPM_P1;HPM_P2
2024/02/16 00:01:20;;;;;;;8.07;2.97;;;10.40;99.90;;;;;;5026606;28;20182;-88
2024/02/16 00:03:46;;;;;;;7.88;3.00;;;10.40;99.90;;;;;;5029100;28;20209;-88
2024/02/16 00:06:12;;;;;;;8.07;2.70;;;10.40;99.90;;;;;;5016083;28;20489;-86
2024/02/16 00:08:38;;;;;;;7.05;2.83;;;10.40;99.90;;;;;;5029607;28;20222;-87
2024/02/16 00:11:05;;;;;;;6.75;2.78;;;10.40;99.90;;;;;;5021861;28;20758;-88
2024/02/16 00:13:32;;;;;;;7.07;2.80;;;10.40;99.90;;;;;;5025932;28;20178;-88
2024/02/16 00:15:57;;;;;;;5.10;3.03;;;10.40;99.90;;;;;;5025535;28;20174;-88
2024/02/16 00:18:23;;;;;;;6.30;2.80;;;10.40;99.90;;;;;;5021184;28;20195;-88
2024/02/16 00:20:49;;;;;;;4.90;2.97;;;10.40;99.90;;;;;;5031694;28;20587;-87
2024/02/16 00:23:16;;;;;;;4.90;2.70;;;10.40;99.90;;;;;;5034432;28;20293;-89
2024/02/16 00:25:41;;;;;;;5.13;2.58;;;10.40;99.90;;;;;;5022677;28;20269;-88
2024/02/16 00:28:08;;;;;;;3.28;2.53;;;10.40;99.90;;;;;;5021052;28;20305;-88
2024/02/16 00:30:34;;;;;;;2.47;2.22;;;10.40;99.90;;;;;;5013994;28;20183;-87
2024/02/16 00:33:00;;;;;;;5.18;2.60;;;10.30;99.90;;;;;;5021863;28;20205;-88
2024/02/16 00:35:27;;;;;;;5.68;2.60;;;10.30;99.90;;;;;;5016761;28;20183;-88
2024/02/16 00:37:52;;;;;;;2.90;2.20;;;10.40;99.90;;;;;;5029351;28;20281;-89
2024/02/16 00:40:18;;;;;;;6.13;2.55;;;10.40;99.90;;;;;;5021709;28;20635;-88
2024/02/16 00:42:44;;;;;;;4.25;2.30;;;10.40;99.90;;;;;;5013457;28;20245;-87
2024/02/16 00:45:10;;;;;;;4.97;2.83;;;10.40;99.90;;;;;;5020778;28;20278;-88
2024/02/16 00:47:36;;;;;;;8.65;2.88;;;10.40;99.90;;;;;;5021786;28;20218;-87
2024/02/16 00:50:03;;;;;;;7.22;2.53;;;10.40;99.90;;;;;;5016124;28;20179;-87
2024/02/16 00:52:29;;;;;;;6.47;2.80;;;10.40;99.90;;;;;;5014450;28;20186;-87
2024/02/16 00:54:55;;;;;;;5.55;2.33;;;10.40;99.90;;;;;;5021314;28;20179;-88
2024/02/16 00:57:21;;;;;;;4.40;2.53;;;10.50;99.90;;;;;;5013637;28;20187;-88
2024/02/16 00:59:47;;;;;;;8.23;2.67;;;10.50;99.90;;;;;;5021685;28;20178;-88
2024/02/16 01:02:13;;;;;;;8.95;2.67;;;10.50;99.90;;;;;;5014591;28;20546;-88
2024/02/16 01:04:38;;;;;;;3.75;2.33;;;10.50;99.90;;;;;;5018443;28;20182;-86
2024/02/16 01:07:04;;;;;;;4.30;2.10;;;10.50;99.90;;;;;;5016158;28;20187;-87
2024/02/16 01:09:31;;;;;;;6.65;2.42;;;10.50;99.90;;;;;;5020072;28;20178;-88
2024/02/16 01:11:57;;;;;;;5.95;2.30;;;10.50;99.90;;;;;;5033865;28;20652;-89
2024/02/16 01:14:23;;;;;;;9.07;2.15;;;10.50;99.90;;;;;;5025508;28;20182;-89
2024/02/16 01:16:49;;;;;;;4.82;2.00;;;10.40;99.90;;;;;;5027844;28;20183;-88
2024/02/16 01:19:14;;;;;;;4.85;2.15;;;10.40;99.90;;;;;;5036611;28;20491;-88
2024/02/16 01:21:41;;;;;;;5.57;2.30;;;10.40;99.90;;;;;;5037027;28;20209;-88
2024/02/16 01:24:06;;;;;;;4.60;2.20;;;10.40;99.90;;;;;;5037853;28;20199;-88
2024/02/16 01:26:32;;;;;;;3.47;2.30;;;10.40;99.90;;;;;;5035083;28;20189;-88
2024/02/16 01:28:59;;;;;;;5.60;2.08;;;10.40;99.90;;;;;;5036127;28;20234;-88
2024/02/16 01:31:25;;;;;;;5.13;2.00;;;10.40;99.90;;;;;;5024918;28;20202;-87
2024/02/16 01:33:52;;;;;;;6.60;2.30;;;10.40;99.90;;;;;;5016994;28;20186;-88
2024/02/16 01:36:19;;;;;;;4.25;2.10;;;10.40;99.90;;;;;;5022600;28;20182;-88
2024/02/16 01:38:45;;;;;;;4.93;2.05;;;10.40;99.90;;;;;;5021957;28;20195;-88
2024/02/16 01:41:10;;;;;;;5.13;2.20;;;10.30;99.90;;;;;;5024476;28;20190;-89
2024/02/16 01:43:36;;;;;;;1.95;1.65;;;10.30;99.90;;;;;;5027994;28;20226;-88
2024/02/16 01:46:02;;;;;;;4.43;2.13;;;10.30;99.90;;;;;;5025531;28;20174;-87
2024/02/16 01:48:29;;;;;;;4.82;2.13;;;10.30;99.90;;;;;;5026874;28;20582;-88
2024/02/16 01:50:55;;;;;;;5.57;2.13;;;10.20;99.90;;;;;;5028464;28;20183;-88
2024/02/16 01:53:22;;;;;;;6.25;2.58;;;10.20;99.90;;;;;;5017769;28;20249;-88
2024/02/16 01:55:48;;;;;;;9.27;2.67;;;10.20;99.90;;;;;;5021254;28;20175;-88
2024/02/16 01:58:14;;;;;;;5.38;2.50;;;10.20;99.90;;;;;;5025517;28;20186;-88
2024/02/16 02:00:43;;;;;;;4.32;2.65;;;10.20;99.90;;;;;;5028354;28;20273;-88
2024/02/16 02:03:10;;;;;;;4.85;2.25;;;10.10;99.90;;;;;;5027882;28;20246;-88
2024/02/16 02:05:47;;;;;;;3.55;2.42;;;10.10;99.90;;;;;;5029277;28;20185;-88
2024/02/16 02:08:13;;;;;;;8.70;2.65;;;10.10;99.90;;;;;;5036097;28;20189;-89
2024/02/16 02:10:39;;;;;;;5.65;2.53;;;10.10;99.90;;;;;;5031276;28;20179;-88
2024/02/16 02:13:05;;;;;;;3.58;2.28;;;10.10;99.90;;;;;;5016948;28;20194;-88
2024/02/16 02:15:32;;;;;;;6.35;2.53;;;10.00;99.90;;;;;;5020906;28;20179;-88
2024/02/16 02:17:59;;;;;;;5.38;2.55;;;10.00;99.90;;;;;;5019956;28;20241;-88
2024/02/16 02:20:25;;;;;;;6.53;2.60;;;10.00;99.90;;;;;;5019914;28;20187;-89
2024/02/16 02:22:51;;;;;;;6.50;2.53;;;10.00;99.90;;;;;;5035782;28;20213;-88
2024/02/16 02:25:16;;;;;;;4.88;2.40;;;9.90;99.90;;;;;;5034545;28;20557;-88
2024/02/16 02:27:42;;;;;;;5.95;2.47;;;9.90;99.90;;;;;;5022838;28;20264;-87
2024/02/16 02:30:09;;;;;;;4.13;2.30;;;9.90;99.90;;;;;;5015932;28;20183;-88
2024/02/16 02:32:35;;;;;;;6.57;2.50;;;9.90;99.90;;;;;;5035343;28;20186;-88
2024/02/16 02:35:03;;;;;;;5.93;2.50;;;9.90;99.90;;;;;;5028293;28;20183;-87
2024/02/16 02:37:29;;;;;;;5.35;2.45;;;9.90;99.90;;;;;;5024683;28;20175;-88
2024/02/16 02:39:55;;;;;;;3.75;2.22;;;9.90;99.90;;;;;;5035978;28;20187;-88
2024/02/16 02:42:22;;;;;;;7.43;2.33;;;9.80;99.90;;;;;;5031713;28;20273;-87
2024/02/16 02:44:49;;;;;;;3.25;2.10;;;9.90;99.90;;;;;;5016526;28;20179;-87
2024/02/16 02:47:16;;;;;;;5.85;2.20;;;9.80;99.90;;;;;;5030917;28;20187;-89
2024/02/16 02:49:43;;;;;;;5.15;2.05;;;9.90;99.90;;;;;;5018986;28;20187;-89
2024/02/16 02:52:09;;;;;;;11.52;2.72;;;9.80;99.90;;;;;;5022252;28;20190;-89
2024/02/16 02:54:35;;;;;;;5.30;2.45;;;9.80;99.90;;;;;;5031451;28;20187;-88
2024/02/16 02:57:02;;;;;;;5.93;2.70;;;9.80;99.90;;;;;;5023566;28;20178;-87
2024/02/16 02:59:28;;;;;;;7.05;2.53;;;9.80;99.90;;;;;;5026850;28;20196;-88
2024/02/16 03:01:53;;;;;;;4.03;2.53;;;9.80;99.90;;;;;;5028470;28;20175;-88
2024/02/16 03:04:19;;;;;;;6.97;2.38;;;9.80;99.90;;;;;;5016285;28;20190;-88
2024/02/16 03:06:45;;;;;;;5.28;2.65;;;9.70;99.90;;;;;;5029923;28;20171;-88
2024/02/16 03:09:12;;;;;;;3.85;2.28;;;9.70;99.90;;;;;;5020118;28;20257;-88
2024/02/16 03:11:39;;;;;;;4.40;2.22;;;9.60;99.90;;;;;;5034919;28;20182;-89
2024/02/16 03:14:05;;;;;;;6.55;2.42;;;9.60;99.90;;;;;;5034517;28;20352;-88
2024/02/16 03:16:31;;;;;;;8.00;2.20;;;9.60;99.90;;;;;;5032746;28;20614;-88
2024/02/16 03:18:57;;;;;;;5.35;2.33;;;9.60;99.90;;;;;;5034731;28;20217;-88
2024/02/16 03:21:23;;;;;;;5.30;1.90;;;9.50;99.90;;;;;;5027706;28;20217;-87
2024/02/16 03:26:24;;;;;;;5.38;2.35;;;9.50;99.90;;;;;;5311101;22;20242;-84
2024/02/16 03:28:50;;;;;;;4.95;2.00;;;9.50;99.90;;;;;;5015238;28;20233;-83
2024/02/16 03:31:21;;;;;;;4.50;2.50;;;9.40;99.90;;;;;;5032244;28;20187;-84
2024/02/16 03:33:47;;;;;;;4.15;2.13;;;9.40;99.90;;;;;;5017086;28;20189;-83
2024/02/16 03:36:14;;;;;;;3.25;2.10;;;9.40;99.90;;;;;;5017046;28;20178;-83
2024/02/16 03:38:44;;;;;;;4.85;2.03;;;9.30;99.90;;;;;;5030233;28;20210;-84
2024/02/16 03:41:21;;;;;;;7.43;2.13;;;9.30;99.90;;;;;;5031794;28;20186;-83
2024/02/16 03:43:47;;;;;;;4.07;2.10;;;9.30;99.90;;;;;;5016848;28;20221;-84
2024/02/16 03:46:13;;;;;;;4.85;2.22;;;9.30;99.90;;;;;;5034531;28;20174;-83
2024/02/16 03:48:41;;;;;;;7.13;2.47;;;9.20;99.90;;;;;;5032256;28;20193;-83
2024/02/16 03:51:07;;;;;;;3.95;2.25;;;9.30;99.90;;;;;;5033141;28;20199;-83
2024/02/16 03:53:34;;;;;;;6.68;2.25;;;9.20;99.90;;;;;;5016662;28;20209;-83
2024/02/16 03:56:00;;;;;;;5.57;2.30;;;9.20;99.90;;;;;;5034750;28;20751;-83
2024/02/16 03:58:26;;;;;;;5.95;2.03;;;9.20;99.90;;;;;;5040488;28;20629;-85
2024/02/16 04:00:55;;;;;;;6.28;2.55;;;9.20;99.90;;;;;;5037672;28;20209;-83
2024/02/16 04:03:21;;;;;;;4.25;2.10;;;9.10;99.90;;;;;;5026098;28;20214;-84
2024/02/16 04:05:46;;;;;;;3.53;2.40;;;9.10;99.90;;;;;;5034223;28;20181;-83
2024/02/16 04:08:12;;;;;;;7.57;2.40;;;9.10;99.90;;;;;;5031751;28;20675;-83
2024/02/16 04:10:38;;;;;;;4.88;2.58;;;9.10;99.90;;;;;;5027367;28;20659;-84
2024/02/16 04:13:04;;;;;;;14.48;2.45;;;9.10;99.90;;;;;;5015922;28;20190;-84
2024/02/16 04:15:29;;;;;;;6.15;2.47;;;9.10;99.90;;;;;;5025220;28;20183;-84
2024/02/16 04:17:55;;;;;;;14.38;2.88;;;9.10;99.90;;;;;;5015450;28;20212;-84
2024/02/16 04:20:22;;;;;;;12.88;2.50;;;9.10;99.90;;;;;;5008204;28;20193;-85
2024/02/16 04:22:47;;;;;;;3.65;2.08;;;9.10;99.90;;;;;;5033938;28;20202;-84
2024/02/16 04:25:13;;;;;;;4.40;2.50;;;9.10;99.90;;;;;;5015892;28;20752;-85
2024/02/16 04:27:39;;;;;;;7.72;2.38;;;9.10;99.90;;;;;;5032613;28;20186;-85
2024/02/16 04:30:06;;;;;;;7.88;2.30;;;9.10;99.90;;;;;;5024307;28;20652;-84
2024/02/16 04:32:32;;;;;;;9.55;2.88;;;9.00;99.90;;;;;;5018131;28;20187;-85
2024/02/16 04:34:58;;;;;;;6.72;2.60;;;9.10;99.90;;;;;;5034447;28;20170;-85
2024/02/16 04:37:25;;;;;;;7.43;2.60;;;9.00;99.90;;;;;;5025648;28;20182;-85
2024/02/16 04:39:52;;;;;;;8.57;2.13;;;9.00;99.90;;;;;;5032230;28;20613;-85
2024/02/16 04:42:18;;;;;;;4.53;2.13;;;9.00;99.90;;;;;;5024721;28;20214;-85
2024/02/16 04:44:43;;;;;;;2.72;1.88;;;9.00;99.90;;;;;;5033481;28;20174;-85
2024/02/16 04:47:10;;;;;;;4.88;1.98;;;8.90;99.90;;;;;;5024716;28;20558;-85
2024/02/16 04:49:37;;;;;;;5.82;2.10;;;8.80;99.90;;;;;;5032331;28;20186;-85
2024/02/16 04:52:04;;;;;;;6.13;2.25;;;8.80;99.90;;;;;;5033437;28;20175;-84
2024/02/16 04:54:30;;;;;;;4.35;2.38;;;8.90;99.90;;;;;;5015839;28;20198;-85
2024/02/16 04:56:55;;;;;;;7.05;2.50;;;8.90;99.90;;;;;;5025493;28;20171;-84
2024/02/16 04:59:21;;;;;;;8.50;3.03;;;9.00;99.90;;;;;;5031096;28;20190;-84
2024/02/16 05:01:48;;;;;;;5.65;2.63;;;9.10;99.90;;;;;;5016622;28;20189;-84
2024/02/16 05:04:16;;;;;;;6.70;2.08;;;9.10;99.90;;;;;;5015604;28;20238;-84
2024/02/16 05:06:46;;;;;;;10.38;2.83;;;9.00;99.90;;;;;;5010126;28;20187;-85
2024/02/16 05:09:16;;;;;;;7.68;2.20;;;9.00;99.90;;;;;;5005113;28;20194;-83
2024/02/16 05:11:45;;;;;;;4.47;1.90;;;9.00;99.90;;;;;;5015320;28;20178;-85
2024/02/16 05:14:14;;;;;;;13.13;2.35;;;9.00;99.90;;;;;;5031484;28;20182;-85
2024/02/16 05:16:46;;;;;;;6.15;1.98;;;9.00;99.90;;;;;;5015709;28;20546;-85
2024/02/16 05:19:13;;;;;;;8.50;2.42;;;9.00;99.90;;;;;;5013316;28;20657;-84
2024/02/16 05:21:39;;;;;;;5.75;2.40;;;9.10;99.90;;;;;;5026935;28;20526;-84
2024/02/16 05:24:05;;;;;;;6.80;2.15;;;9.00;99.90;;;;;;5015211;28;20726;-84
2024/02/16 05:26:31;;;;;;;4.43;2.47;;;9.10;99.90;;;;;;5028232;28;20250;-85
2024/02/16 05:28:57;;;;;;;5.13;2.03;;;9.00;99.90;;;;;;5026776;28;20609;-85
2024/02/16 05:31:23;;;;;;;3.50;1.90;;;8.90;99.90;;;;;;5015077;28;20185;-85
2024/02/16 05:33:50;;;;;;;6.47;2.13;;;8.90;99.90;;;;;;5015573;28;20190;-85
2024/02/16 05:36:21;;;;;;;4.90;2.28;;;8.80;99.90;;;;;;5012827;28;20182;-84
2024/02/16 05:38:47;;;;;;;6.95;2.15;;;8.80;99.90;;;;;;5009436;28;20186;-84
2024/02/16 05:41:13;;;;;;;3.85;1.70;;;8.80;99.90;;;;;;5023982;28;20179;-84
2024/02/16 05:43:39;;;;;;;12.02;1.95;;;8.80;99.90;;;;;;5034014;28;20207;-84
2024/02/16 05:46:08;;;;;;;4.05;1.65;;;8.90;99.90;;;;;;5035793;28;20174;-84
2024/02/16 05:48:37;;;;;;;4.22;1.60;;;8.90;99.90;;;;;;5032215;28;20186;-84
2024/02/16 05:51:05;;;;;;;6.47;1.77;;;8.90;99.90;;;;;;5011362;28;20175;-84
2024/02/16 05:53:31;;;;;;;9.25;2.30;;;8.90;99.90;;;;;;5031575;28;20970;-85
2024/02/16 05:55:58;;;;;;;3.30;1.52;;;9.00;99.90;;;;;;5020956;28;20617;-84
2024/02/16 05:58:24;;;;;;;2.83;1.80;;;9.00;99.90;;;;;;5031797;28;20273;-84
2024/02/16 06:00:50;;;;;;;5.60;1.80;;;9.00;99.90;;;;;;5024230;28;20185;-84
2024/02/16 06:03:16;;;;;;;6.18;2.13;;;9.00;99.90;;;;;;5018773;28;20210;-84
2024/02/16 06:05:44;;;;;;;7.47;2.13;;;9.10;99.90;;;;;;5028243;28;20178;-84
2024/02/16 06:08:15;;;;;;;6.03;2.28;;;9.00;99.90;;;;;;5033894;28;20182;-84
2024/02/16 06:10:41;;;;;;;11.95;3.00;;;9.00;99.90;;;;;;5009737;28;20179;-84
2024/02/16 06:13:07;;;;;;;6.45;2.00;;;9.00;99.90;;;;;;5032890;28;20301;-84
2024/02/16 06:15:33;;;;;;;3.67;1.90;;;8.90;99.90;;;;;;5040128;28;20179;-84
2024/02/16 06:18:02;;;;;;;4.90;1.65;;;8.90;99.90;;;;;;5036507;28;20188;-84
2024/02/16 06:20:28;;;;;;;8.45;2.00;;;8.90;99.90;;;;;;5018105;28;20562;-84
2024/02/16 06:22:54;;;;;;;3.83;1.85;;;8.90;99.90;;;;;;5018742;28;20257;-85
2024/02/16 06:25:20;;;;;;;8.80;2.03;;;8.80;99.90;;;;;;5033395;28;20730;-84
2024/02/16 06:27:45;;;;;;;4.07;2.05;;;8.80;99.90;;;;;;5021993;28;20189;-84
2024/02/16 06:30:12;;;;;;;4.03;1.88;;;8.90;99.90;;;;;;5036347;28;20692;-84
2024/02/16 06:32:41;;;;;;;9.23;2.40;;;8.90;99.90;;;;;;5019017;28;20500;-84
2024/02/16 06:35:08;;;;;;;4.50;2.03;;;9.00;99.90;;;;;;5009092;28;20274;-84
2024/02/16 06:37:34;;;;;;;5.93;1.98;;;8.90;99.90;;;;;;5017258;28;20229;-84
2024/02/16 06:40:00;;;;;;;4.18;1.80;;;9.00;99.90;;;;;;5021723;28;20174;-84
2024/02/16 06:42:27;;;;;;;5.03;1.70;;;8.90;99.90;;;;;;5006390;28;20273;-85
2024/02/16 06:44:53;;;;;;;3.83;2.00;;;8.90;99.90;;;;;;5031072;28;20191;-84
2024/02/16 06:47:20;;;;;;;9.25;2.22;;;8.80;99.90;;;;;;5033939;28;20191;-84
2024/02/16 06:49:46;;;;;;;7.03;1.80;;;8.90;99.90;;;;;;5035999;28;20178;-84
2024/02/16 06:52:12;;;;;;;4.85;1.63;;;8.90;99.90;;;;;;5015976;28;20609;-84
2024/02/16 06:54:38;;;;;;;5.68;1.95;;;8.90;99.90;;;;;;5010786;28;20193;-84
2024/02/16 06:57:04;;;;;;;7.32;1.80;;;8.90;99.90;;;;;;5027692;28;20182;-84
2024/02/16 06:59:30;;;;;;;1.83;1.30;;;8.90;99.90;;;;;;5018003;28;20186;-84
2024/02/16 07:01:56;;;;;;;8.68;1.88;;;8.90;99.90;;;;;;5034160;28;20189;-84
2024/02/16 07:04:22;;;;;;;8.07;1.70;;;8.90;99.90;;;;;;5008567;28;21826;-84
2024/02/16 07:06:48;;;;;;;3.17;1.88;;;8.90;99.90;;;;;;5035768;28;20523;-84
2024/02/16 07:09:15;;;;;;;4.75;1.80;;;8.90;99.90;;;;;;5009782;28;20191;-84
2024/02/16 07:11:42;;;;;;;9.32;1.90;;;8.90;99.90;;;;;;5017149;28;20519;-84
2024/02/16 07:14:08;;;;;;;7.57;1.80;;;8.90;99.90;;;;;;5015961;28;20608;-83
2024/02/16 07:16:34;;;;;;;3.10;1.75;;;8.90;99.90;;;;;;5009165;28;20186;-85
2024/02/16 07:19:00;;;;;;;4.15;1.63;;;8.90;99.90;;;;;;5035571;28;20190;-84
2024/02/16 07:21:26;;;;;;;3.10;1.58;;;9.00;99.90;;;;;;5023315;28;20523;-84
2024/02/16 07:23:53;;;;;;;3.40;1.58;;;9.00;99.90;;;;;;5027123;28;20249;-84
2024/02/16 07:26:18;;;;;;;4.82;1.73;;;9.00;99.90;;;;;;5015674;28;20225;-84
2024/02/16 07:28:44;;;;;;;3.17;1.40;;;9.20;99.90;;;;;;5008856;28;20264;-84
2024/02/16 07:31:11;;;;;;;2.97;1.52;;;9.30;99.90;;;;;;5033985;28;20182;-84
2024/02/16 07:33:36;;;;;;;1.88;1.25;;;9.50;99.90;;;;;;5009332;28;20205;-84
2024/02/16 07:36:03;;;;;;;2.38;1.40;;;9.60;99.90;;;;;;5009090;28;20183;-84
2024/02/16 07:38:30;;;;;;;2.10;1.15;;;9.70;99.90;;;;;;5035172;28;20189;-84
2024/02/16 07:40:55;;;;;;;2.08;1.67;;;9.80;99.90;;;;;;5008924;28;20191;-85
2024/02/16 07:43:23;;;;;;;5.40;1.50;;;9.90;99.90;;;;;;5032539;28;20276;-85
2024/02/16 07:45:50;;;;;;;2.67;1.35;;;9.90;99.90;;;;;;5032064;28;20232;-85
2024/02/16 07:48:16;;;;;;;2.95;1.40;;;9.90;99.90;;;;;;5016269;28;20191;-84
2024/02/16 07:50:42;;;;;;;2.60;1.55;;;9.90;99.90;;;;;;5034177;28;20197;-85
2024/02/16 07:53:09;;;;;;;3.80;1.70;;;9.80;99.90;;;;;;5026666;28;20186;-85
2024/02/16 07:55:35;;;;;;;4.93;1.65;;;9.80;99.90;;;;;;5032387;28;20206;-85
2024/02/16 07:58:01;;;;;;;6.15;1.58;;;9.70;99.90;;;;;;5034676;28;20225;-85
2024/02/16 08:00:28;;;;;;;2.90;1.67;;;9.70;99.90;;;;;;5028505;28;20686;-84
2024/02/16 08:02:54;;;;;;;4.30;1.38;;;9.80;99.90;;;;;;5016672;28;20217;-84
2024/02/16 08:05:20;;;;;;;4.13;1.50;;;9.90;99.90;;;;;;5032603;28;20531;-84
2024/02/16 08:07:47;;;;;;;4.60;1.40;;;10.00;99.90;;;;;;5033262;28;20252;-84
2024/02/16 08:10:12;;;;;;;4.22;1.60;;;10.10;99.90;;;;;;5016189;28;20232;-84
2024/02/16 08:12:38;;;;;;;4.15;1.75;;;10.10;99.90;;;;;;5016478;28;20190;-84
2024/02/16 08:15:06;;;;;;;3.53;1.60;;;10.20;99.90;;;;;;5016039;28;20182;-84
2024/02/16 08:17:34;;;;;;;6.00;1.40;;;10.30;99.90;;;;;;5009833;28;20541;-85
2024/02/16 08:20:00;;;;;;;4.03;1.70;;;10.40;99.90;;;;;;5012490;28;20605;-85
2024/02/16 08:22:26;;;;;;;3.15;1.23;;;10.40;99.90;;;;;;5019874;28;20210;-85
2024/02/16 08:24:52;;;;;;;2.95;1.60;;;10.50;99.90;;;;;;5032822;28;20205;-84
2024/02/16 08:27:17;;;;;;;3.55;1.60;;;10.60;99.90;;;;;;5016513;28;20513;-85
2024/02/16 08:29:44;;;;;;;3.95;1.63;;;10.70;99.90;;;;;;5033987;28;20186;-84
2024/02/16 08:32:10;;;;;;;4.95;1.95;;;10.80;99.90;;;;;;5025953;28;20175;-85
2024/02/16 08:34:39;;;;;;;3.63;1.67;;;10.90;99.90;;;;;;5018632;28;20273;-85
2024/02/16 08:37:06;;;;;;;5.10;1.48;;;11.00;99.90;;;;;;5033323;28;20637;-85
2024/02/16 08:39:34;;;;;;;2.28;1.40;;;11.10;99.90;;;;;;5016173;28;20201;-85
2024/02/16 08:42:00;;;;;;;5.78;1.52;;;11.10;99.90;;;;;;5032567;28;20186;-86
2024/02/16 08:44:26;;;;;;;3.67;1.85;;;11.20;99.90;;;;;;5020542;28;20222;-85
2024/02/16 08:46:53;;;;;;;2.35;1.20;;;11.20;99.90;;;;;;5015642;28;20228;-86
2024/02/16 08:49:20;;;;;;;3.03;1.30;;;11.30;99.90;;;;;;5032837;28;20178;-86
2024/02/16 08:51:47;;;;;;;6.00;1.50;;;11.30;99.90;;;;;;5037563;28;20178;-86
2024/02/16 08:54:13;;;;;;;2.88;1.50;;;11.30;99.90;;;;;;5018472;28;20908;-85
2024/02/16 08:56:39;;;;;;;3.80;1.38;;;11.40;99.90;;;;;;5009028;28;20244;-84
2024/02/16 08:59:05;;;;;;;3.50;1.60;;;11.40;99.90;;;;;;5025211;28;20182;-85
2024/02/16 09:01:32;;;;;;;4.00;1.60;;;11.50;99.90;;;;;;5029657;28;20189;-86
2024/02/16 09:03:58;;;;;;;5.03;1.70;;;11.50;99.90;;;;;;5022910;28;20612;-85
2024/02/16 09:06:24;;;;;;;7.32;1.70;;;11.60;99.90;;;;;;5014424;28;20271;-86
2024/02/16 09:08:51;;;;;;;4.38;2.13;;;11.70;99.90;;;;;;5030811;28;20186;-85
2024/02/16 09:11:17;;;;;;;4.93;1.77;;;11.80;99.90;;;;;;5033607;28;20194;-85
2024/02/16 09:14:05;;;;;;;5.25;2.22;;;11.90;99.90;;;;;;5034966;28;20186;-85
2024/02/16 09:16:30;;;;;;;5.43;2.05;;;12.10;99.90;;;;;;5033220;28;20202;-86
2024/02/16 09:18:58;;;;;;;5.72;2.25;;;12.20;99.90;;;;;;5014788;28;20220;-85
2024/02/16 09:21:26;;;;;;;5.47;2.38;;;12.40;99.90;;;;;;5012141;28;20185;-85
2024/02/16 09:23:52;;;;;;;6.60;2.45;;;12.50;99.90;;;;;;5010461;28;20225;-86
2024/02/16 09:26:18;;;;;;;7.45;2.58;;;12.60;99.90;;;;;;5030190;28;20226;-85
2024/02/16 09:28:45;;;;;;;6.38;2.10;;;12.70;99.90;;;;;;5015354;28;20621;-86
2024/02/16 09:31:15;;;;;;;6.18;2.35;;;12.70;99.90;;;;;;5014825;28;20319;-85
2024/02/16 09:33:41;;;;;;;5.00;1.73;;;12.70;99.90;;;;;;5039176;28;20174;-85
2024/02/16 09:36:07;;;;;;;5.93;2.10;;;12.70;99.90;;;;;;5015501;28;20194;-85
2024/02/16 09:38:32;;;;;;;4.85;2.05;;;12.70;99.90;;;;;;5036787;28;20186;-85
2024/02/16 09:40:59;;;;;;;6.15;2.30;;;12.70;99.90;;;;;;5037045;28;20186;-85
2024/02/16 09:43:30;;;;;;;5.82;2.22;;;12.70;99.90;;;;;;5018463;28;20348;-85
2024/02/16 09:46:02;;;;;;;6.95;2.20;;;12.70;99.90;;;;;;5036353;28;20179;-85
2024/02/16 09:48:29;;;;;;;4.20;2.25;;;12.80;99.90;;;;;;5036694;28;20186;-85
2024/02/16 09:50:56;;;;;;;5.30;1.83;;;12.80;99.90;;;;;;5036546;28;20175;-85
2024/02/16 09:53:25;;;;;;;5.30;2.03;;;12.90;99.90;;;;;;5038495;28;20195;-84
2024/02/16 09:55:50;;;;;;;6.28;2.33;;;13.00;99.90;;;;;;5025046;28;20233;-85
2024/02/16 09:58:20;;;;;;;6.05;1.90;;;13.00;99.90;;;;;;5007353;28;20194;-85
2024/02/16 10:00:55;;;;;;;3.95;1.75;;;13.10;99.90;;;;;;5031945;28;20214;-85
2024/02/16 10:03:26;;;;;;;4.97;1.60;;;13.10;99.90;;;;;;5022110;28;20214;-86
2024/02/16 10:05:52;;;;;;;4.47;1.75;;;13.20;99.90;;;;;;5038900;28;20526;-86
2024/02/16 10:08:19;;;;;;;3.25;1.90;;;13.20;99.90;;;;;;5018824;28;20500;-85
2024/02/16 10:10:45;;;;;;;3.88;1.80;;;13.40;99.90;;;;;;5018816;28;20190;-86
2024/02/16 10:13:11;;;;;;;4.22;2.10;;;13.50;99.90;;;;;;5017354;28;20640;-85
2024/02/16 10:15:37;;;;;;;5.10;2.53;;;13.70;99.90;;;;;;5012758;28;20187;-85
2024/02/16 10:18:07;;;;;;;6.47;2.13;;;13.80;99.90;;;;;;5031698;28;20582;-85
2024/02/16 10:20:35;;;;;;;6.68;2.80;;;14.00;99.90;;;;;;5038533;28;20185;-85
2024/02/16 10:23:05;;;;;;;8.77;2.45;;;14.10;99.90;;;;;;5026210;28;20256;-86
2024/02/16 10:25:31;;;;;;;8.05;3.17;;;14.30;99.90;;;;;;5037873;28;20229;-84
2024/02/16 10:28:00;;;;;;;8.55;2.90;;;14.40;99.90;;;;;;5030599;28;20187;-85
2024/02/16 10:30:33;;;;;;;6.63;3.00;;;14.50;99.90;;;;;;5031381;28;20202;-85
2024/02/16 10:32:59;;;;;;;5.75;2.40;;;14.50;99.90;;;;;;5020301;28;20190;-86
2024/02/16 10:35:29;;;;;;;6.65;2.63;;;14.50;99.90;;;;;;5036094;28;20190;-84
2024/02/16 10:37:56;;;;;;;7.00;2.17;;;14.50;99.90;;;;;;5035881;28;20194;-85
2024/02/16 10:40:24;;;;;;;17.15;1.77;;;14.50;99.90;;;;;;5034279;28;20534;-84
2024/02/16 10:42:51;;;;;;;4.80;1.67;;;14.40;99.90;;;;;;5018195;28;20214;-86
2024/02/16 10:45:18;;;;;;;2.88;1.40;;;14.30;99.90;;;;;;5018231;28;20250;-85
2024/02/16 10:47:44;;;;;;;4.68;1.40;;;14.20;99.90;;;;;;5010010;28;20179;-84
2024/02/16 10:50:11;;;;;;;5.55;1.73;;;14.20;99.90;;;;;;5036879;28;20183;-85
2024/02/16 10:52:41;;;;;;;4.38;1.50;;;14.20;99.90;;;;;;5009773;28;20295;-85
2024/02/16 10:55:07;;;;;;;3.78;1.40;;;14.10;99.90;;;;;;5035749;28;20194;-85
2024/02/16 10:57:36;;;;;;;2.90;1.50;;;14.20;99.90;;;;;;5009538;28;20182;-86
2024/02/16 11:00:11;;;;;;;4.13;1.55;;;14.20;99.90;;;;;;5035601;28;20179;-86
2024/02/16 11:02:52;;;;;;;4.45;1.52;;;14.20;99.90;;;;;;5041382;28;20298;-87
2024/02/16 11:05:22;;;;;;;2.28;1.58;;;14.20;99.90;;;;;;5034354;28;20190;-88
2024/02/16 11:07:47;;;;;;;4.65;1.77;;;14.20;99.90;;;;;;5035319;28;20190;-86
2024/02/16 11:10:14;;;;;;;3.85;1.33;;;14.30;99.90;;;;;;5038310;28;20560;-87
2024/02/16 11:12:46;;;;;;;3.20;1.70;;;14.40;99.90;;;;;;5009895;28;20221;-87
2024/02/16 11:15:13;;;;;;;3.80;1.50;;;14.50;99.90;;;;;;5039134;28;20177;-85
2024/02/16 11:17:39;;;;;;;3.75;1.50;;;14.60;99.90;;;;;;5033945;28;20625;-86
2024/02/16 11:20:07;;;;;;;3.45;1.58;;;14.60;99.90;;;;;;5045386;28;20621;-85
2024/02/16 11:22:38;;;;;;;3.53;1.30;;;14.60;99.90;;;;;;5010422;28;20213;-85
2024/02/16 11:25:06;;;;;;;8.98;1.48;;;14.70;99.90;;;;;;5014226;28;20250;-85
2024/02/16 11:27:33;;;;;;;3.33;1.45;;;14.80;99.90;;;;;;5005460;28;20191;-85
2024/02/16 11:30:00;;;;;;;3.45;1.50;;;14.80;99.90;;;;;;5020240;28;20191;-86
2024/02/16 11:32:25;;;;;;;4.60;1.50;;;14.70;99.90;;;;;;5030107;28;20191;-86
2024/02/16 11:34:51;;;;;;;4.50;1.33;;;14.70;99.90;;;;;;5013988;28;20217;-87
2024/02/16 11:37:17;;;;;;;2.78;1.30;;;14.60;99.90;;;;;;5010667;28;20191;-86
2024/02/16 11:39:45;;;;;;;2.45;1.60;;;14.60;99.90;;;;;;5000976;28;20191;-85
2024/02/16 11:42:13;;;;;;;2.88;1.55;;;14.60;99.90;;;;;;5013781;28;20187;-85
2024/02/16 11:44:49;;;;;;;3.30;1.50;;;14.50;99.90;;;;;;5018269;28;20667;-85
2024/02/16 11:47:26;;;;;;;3.63;1.90;;;14.40;99.90;;;;;;5012560;28;20195;-85
2024/02/16 11:50:06;;;;;;;3.95;1.30;;;14.30;99.90;;;;;;5013804;28;20206;-88
2024/02/16 11:52:32;;;;;;;3.00;1.60;;;14.20;99.90;;;;;;5013873;28;20644;-86
2024/02/16 11:55:03;;;;;;;3.10;1.75;;;14.20;99.90;;;;;;5017496;28;20178;-86
2024/02/16 11:57:30;;;;;;;2.55;1.40;;;14.20;99.90;;;;;;5014042;28;20182;-85
2024/02/16 11:59:56;;;;;;;2.47;1.77;;;14.10;99.90;;;;;;5013120;28;20671;-87
2024/02/16 12:02:25;;;;;;;4.15;1.70;;;14.10;99.90;;;;;;5013363;28;20190;-86
2024/02/16 12:04:59;;;;;;;4.10;1.50;;;14.10;99.90;;;;;;5013569;28;20186;-87
2024/02/16 12:07:29;;;;;;;3.38;1.50;;;14.10;99.90;;;;;;5023668;28;20665;-85
2024/02/16 12:09:59;;;;;;;3.40;1.42;;;14.10;99.90;;;;;;5028258;28;20202;-87
2024/02/16 12:12:25;;;;;;;3.15;1.80;;;14.10;99.90;;;;;;5016843;28;20187;-86
2024/02/16 12:14:53;;;;;;;4.97;1.80;;;14.00;99.90;;;;;;5013294;28;20262;-87
2024/02/16 12:17:19;;;;;;;4.97;1.70;;;14.10;99.90;;;;;;5011860;28;20269;-86
2024/02/16 12:19:46;;;;;;;3.88;1.77;;;14.10;99.90;;;;;;5007568;28;20626;-86
2024/02/16 12:22:17;;;;;;;3.47;1.73;;;14.10;99.90;;;;;;5013055;28;20198;-86
2024/02/16 12:24:44;;;;;;;2.83;1.67;;;14.10;99.90;;;;;;5014635;28;20668;-85
2024/02/16 12:27:09;;;;;;;5.28;1.60;;;14.10;99.90;;;;;;5021642;28;20525;-85
2024/02/16 12:29:35;;;;;;;6.00;1.60;;;14.10;99.90;;;;;;5015998;28;20647;-86
2024/02/16 12:32:01;;;;;;;2.83;1.60;;;14.10;99.90;;;;;;5015915;28;20240;-85
2024/02/16 12:34:27;;;;;;;3.38;1.48;;;14.00;99.90;;;;;;5016608;28;20240;-86
2024/02/16 12:36:53;;;;;;;4.15;1.75;;;14.10;99.90;;;;;;5022256;28;20269;-84
2024/02/16 12:39:19;;;;;;;4.18;1.90;;;14.10;99.90;;;;;;5019677;28;20277;-86
2024/02/16 12:41:46;;;;;;;3.25;1.27;;;14.00;99.90;;;;;;5013336;28;20720;-84
2024/02/16 12:44:12;;;;;;;2.35;1.38;;;14.00;99.90;;;;;;5030938;28;20241;-87
2024/02/16 12:46:38;;;;;;;4.95;1.83;;;14.00;99.90;;;;;;5018676;28;20183;-87
2024/02/16 12:49:04;;;;;;;6.00;2.20;;;14.00;99.90;;;;;;5007678;28;20199;-87
2024/02/16 12:51:30;;;;;;;3.08;1.83;;;14.00;99.90;;;;;;5033714;28;20191;-87